Terminal Aerodrome Forecast
Issued by NWS Goodland, KS

Home | Current Version | Previous Version | Text Only | Print | Product List | Glossary On
Versions: 1 2 3 4 5 6 7 8 9 10 11 12 13 14 15 16 17 18
000
FTUS43 KGLD 300302 AAB
TAFGLD
TAF AMD
KGLD 300302Z 3003/3024 35011KT P6SM SCT250
     FM300800 33011KT 4SM BR BKN005
     FM301300 33009KT 2SM BR OVC004
     FM301700 36007KT P6SM SCT005 SCT030 SCT250
     FM302300 09004KT P6SM SCT035 SCT150 SCT300=

USA.gov is the U.S. government's official web portal to all federal, state and local government web resources and services.